イルクーツク の空港の天気 - METARとTAF

イルクーツク国際空港 ( UIII / IKT ) - ロシア イルクーツク
飛行場実況気象(Metar)
観測時間07/29 10:00 IRKT (07/29 02:00 UTC)
風向・風速北北東 2m/s
視程4700m
天気現象弱いしゅう雨
全天の4割程度の雲 雲底高度 1520m
気温16℃
湿度100%
気圧1002hPa
METARUIII 290200Z 03002MPS 360V070 4700 -SHRA SCT050CB 16/16 Q1002 RETS R12/CLRD60 NOSIG RMK QFE709/0946
過去の天気等 Google飛行場航空写真 Wunderground天気予報

過去48時間のMETAR

飛行場予報(TAF)
発表時間: 7/29 09:25 IRKT (7/29 01:25 UTC)
予報対象時間: 29日9時 IRKT ~ 30日8時 IRKT
風向・風速南 3m/s
視程5000m
天気現象
全天の8割程度の積乱雲 雲底高度 1220m
29日9時 IRKT ~ 29日15時 IRKT に一時的に
風向・風速不定 8m/s
天気現象弱い雷雨
29日15時 IRKT から
風向・風速西北西 8m/s 瞬間風速 14m/s
視程10km以上
天気現象弱いしゅう雨
全天の8割程度の積乱雲 雲底高度 270m
29日15時 IRKT ~ 30日8時 IRKT に一時的に
視程2000m
天気現象雷雨
全天の8割程度の雲 雲底高度 120m
全天の8割程度の積乱雲 雲底高度 270m
TAF AMD UIII 290125Z 2901/2924 19003MPS 5000 FU BKN040CB
TEMPO 2901/2907 VRB08MPS -TSRA
FM290700 30008G14MPS 9999 -SHRA BKN009CB
TEMPO 2907/2924 2000 TSRA BKN004 BKN009CB